Time;durP1;ratioP1;P1;durP2;ratioP2;P2;SDS_P1;SDS_P2;PMS_P1;PMS_P2;Temp;Humidity;BMP_temperature;BMP_pressure;BME280_temperature;BME280_humidity;BME280_pressure;Samples;Min_cycle;Max_cycle;Signal;HPM_P1;HPM_P2
2021/09/15 00:01:51;;;;;;;8.98;8.03;;;;;;;14.23;87.16;97912.79;1686860;84;21033;-77
2021/09/15 00:04:18;;;;;;;11.03;8.63;;;;;;;14.20;87.11;97911.59;1673290;85;21017;-77
2021/09/15 00:06:45;;;;;;;9.50;8.43;;;;;;;14.17;87.59;97909.53;1680924;84;21002;-77
2021/09/15 00:09:12;;;;;;;10.75;8.43;;;;;;;14.12;87.75;97911.94;1680031;85;21011;-76
2021/09/15 00:11:39;;;;;;;9.20;8.00;;;;;;;14.07;87.14;97909.95;1681372;85;21433;-76
2021/09/15 00:14:05;;;;;;;12.15;8.95;;;;;;;14.05;87.23;97910.50;1681354;85;21070;-76
2021/09/15 00:16:32;;;;;;;9.50;8.50;;;;;;;14.01;87.00;97908.02;1681378;85;21338;-76
2021/09/15 00:18:59;;;;;;;11.97;8.58;;;;;;;13.93;87.88;97911.03;1680478;85;20984;-76
2021/09/15 00:21:25;;;;;;;11.60;8.70;;;;;;;13.88;87.54;97913.05;1681162;85;21586;-76
2021/09/15 00:23:51;;;;;;;10.50;8.88;;;;;;;13.82;86.94;97912.38;1684930;84;20986;-76
2021/09/15 00:26:18;;;;;;;9.90;8.90;;;;;;;13.80;87.18;97916.92;1684710;84;21001;-76
2021/09/15 00:28:45;;;;;;;9.85;8.83;;;;;;;13.77;87.29;97910.39;1681077;85;21002;-76
2021/09/15 00:31:11;;;;;;;10.78;9.15;;;;;;;13.71;88.88;97915.51;1681387;85;21073;-76
2021/09/15 00:33:37;;;;;;;13.70;9.85;;;;;;;13.68;89.51;97907.67;1681161;85;21022;-76
2021/09/15 00:36:04;;;;;;;11.63;9.58;;;;;;;13.66;89.22;97915.33;1680977;85;21006;-76
2021/09/15 00:38:31;;;;;;;10.13;9.08;;;;;;;13.66;88.40;97915.33;1680644;85;20975;-76
2021/09/15 00:40:57;;;;;;;12.65;9.50;;;;;;;13.64;88.42;97918.05;1681333;85;21051;-76
2021/09/15 00:43:24;;;;;;;12.60;9.43;;;;;;;13.64;87.80;97918.05;1681495;85;21293;-76
2021/09/15 00:45:50;;;;;;;11.05;9.20;;;;;;;13.66;87.93;97916.66;1681357;84;21059;-76
2021/09/15 00:48:17;;;;;;;11.95;9.33;;;;;;;13.65;88.29;97914.91;1661696;84;20948;-76
2021/09/15 00:50:44;;;;;;;12.75;9.90;;;;;;;13.64;88.27;97914.52;1701484;84;21125;-76
2021/09/15 00:53:12;;;;;;;12.05;9.10;;;;;;;13.57;89.15;97914.79;1682770;84;21005;-76
2021/09/15 00:55:39;;;;;;;12.53;8.10;;;;;;;13.59;88.22;97914.73;1681259;85;21044;-76
2021/09/15 00:58:07;;;;;;;9.10;8.20;;;;;;;13.61;87.95;97916.84;1661644;84;21043;-76
2021/09/15 01:00:33;;;;;;;9.43;8.00;;;;;;;13.64;87.85;97917.17;1664618;85;21422;-76
2021/09/15 01:03:02;;;;;;;9.10;7.97;;;;;;;13.66;87.75;97916.66;1682318;85;21032;-75
2021/09/15 01:05:29;;;;;;;8.68;7.70;;;;;;;13.70;87.91;97912.94;1682666;85;21035;-76
2021/09/15 01:07:59;;;;;;;9.03;7.65;;;;;;;13.71;88.33;97911.52;1669620;85;21005;-76
2021/09/15 01:10:27;;;;;;;10.40;7.58;;;;;;;13.71;88.56;97906.67;1649232;86;20961;-76
2021/09/15 01:13:05;;;;;;;9.18;7.92;;;;;;;13.72;88.52;97901.73;1626035;88;21041;-75
2021/09/15 01:15:45;;;;;;;7.83;7.00;;;;;;;13.69;88.75;97907.19;1678161;85;21316;-75
2021/09/15 01:18:19;;;;;;;9.38;7.72;;;;;;;13.69;88.91;97901.41;1656926;85;21445;-76
2021/09/15 01:20:56;;;;;;;8.45;7.15;;;;;;;13.71;88.68;97904.01;1589677;90;21113;-76
2021/09/15 01:23:25;;;;;;;10.08;7.17;;;;;;;13.78;88.25;97911.27;1658888;86;21418;-76
2021/09/15 01:26:09;;;;;;;10.63;7.67;;;;;;;13.76;88.10;97911.78;1651197;87;21084;-76
2021/09/15 01:28:43;;;;;;;10.15;7.50;;;;;;;13.75;87.97;97916.27;1660056;86;21623;-76
2021/09/15 01:31:12;;;;;;;10.58;7.80;;;;;;;13.72;87.86;97913.27;1661827;85;21314;-76
2021/09/15 01:33:38;;;;;;;8.90;7.58;;;;;;;13.73;87.64;97916.78;1638421;86;22258;-76
2021/09/15 01:36:04;;;;;;;10.75;7.87;;;;;;;13.74;87.60;97919.83;1614843;88;21028;-75
2021/09/15 01:38:32;;;;;;;8.43;7.08;;;;;;;13.71;87.22;97918.17;1631004;87;21519;-76
2021/09/15 01:40:59;;;;;;;10.98;8.33;;;;;;;13.69;87.20;97924.05;1655837;86;20990;-76
2021/09/15 01:43:27;;;;;;;13.90;7.85;;;;;;;13.65;87.40;97926.89;1691141;85;20988;-76
2021/09/15 01:45:53;;;;;;;8.98;7.45;;;;;;;13.62;87.78;97929.70;1609254;89;21639;-77
2021/09/15 01:48:21;;;;;;;11.15;8.08;;;;;;;13.58;87.36;97923.66;1659858;86;21522;-76
2021/09/15 01:50:48;;;;;;;10.75;8.10;;;;;;;13.53;86.92;97922.50;1662601;85;20996;-76
2021/09/15 01:53:15;;;;;;;11.55;8.55;;;;;;;13.48;87.21;97929.83;1663714;86;21048;-76
2021/09/15 01:55:41;;;;;;;11.68;8.50;;;;;;;13.46;87.28;97923.19;1655309;86;21430;-76
2021/09/15 01:58:13;;;;;;;9.75;7.97;;;;;;;13.47;86.86;97921.44;1634514;86;21064;-76
2021/09/15 02:00:44;;;;;;;8.83;7.92;;;;;;;13.43;86.89;97923.34;1646946;85;21468;-76
2021/09/15 02:03:12;;;;;;;12.95;8.83;;;;;;;13.41;86.86;97922.53;1684217;84;21052;-76
2021/09/15 02:05:40;;;;;;;10.90;8.63;;;;;;;13.40;86.85;97922.58;1677154;84;20988;-75
2021/09/15 02:08:09;;;;;;;10.18;8.65;;;;;;;13.43;86.88;97916.69;1677135;84;21105;-76
2021/09/15 02:10:44;;;;;;;12.20;8.58;;;;;;;13.42;87.19;97913.60;1711920;84;21451;-76
2021/09/15 02:13:12;;;;;;;11.63;9.23;;;;;;;13.41;86.79;97917.69;1684367;84;20991;-76
2021/09/15 02:15:39;;;;;;;9.75;8.70;;;;;;;13.39;86.88;97908.88;1676094;85;21023;-76
2021/09/15 02:18:06;;;;;;;12.90;8.63;;;;;;;13.37;86.70;97908.09;1686136;85;21452;-76
2021/09/15 02:20:35;;;;;;;9.48;8.03;;;;;;;13.33;87.10;97906.04;1674389;84;21017;-76
2021/09/15 02:23:04;;;;;;;13.83;9.53;;;;;;;13.28;87.86;97903.55;1670845;86;21113;-77
2021/09/15 02:25:35;;;;;;;10.58;8.80;;;;;;;13.25;86.93;97905.00;1671790;85;21003;-76
2021/09/15 02:28:12;;;;;;;11.80;8.23;;;;;;;13.20;87.22;97899.89;1684992;85;21086;-75
2021/09/15 02:30:43;;;;;;;9.88;8.58;;;;;;;13.15;87.85;97912.52;1685739;84;20976;-76
2021/09/15 02:33:11;;;;;;;10.58;8.85;;;;;;;13.11;87.00;97908.25;1700154;84;21017;-76
2021/09/15 02:35:56;;;;;;;;;;;;;;;13.07;87.45;97908.84;1707126;84;21007;-76
2021/09/15 02:38:41;;;;;;;10.58;8.90;;;;;;;13.06;87.87;97905.80;1686282;84;20107;-76
2021/09/15 02:41:15;;;;;;;10.85;8.10;;;;;;;13.05;88.19;97905.36;1682893;85;21046;-76
2021/09/15 02:43:47;;;;;;;9.48;7.83;;;;;;;13.04;88.76;97913.44;1675109;85;21467;-78
2021/09/15 02:46:24;;;;;;;10.08;8.08;;;;;;;13.05;88.57;97916.48;1677578;85;20940;-77
2021/09/15 02:49:00;;;;;;;11.80;7.33;;;;;;;13.05;89.13;97916.48;1673451;85;21464;-77
2021/09/15 02:51:29;;;;;;;9.25;7.90;;;;;;;13.07;89.09;97920.81;1685855;85;21074;-77
2021/09/15 02:54:07;;;;;;;11.53;7.80;;;;;;;13.08;89.08;97913.68;1688862;84;21072;-77
2021/09/15 02:56:35;;;;;;;10.13;7.83;;;;;;;13.13;88.70;97913.52;1700286;84;20998;-77
2021/09/15 02:59:04;;;;;;;11.57;7.53;;;;;;;13.16;88.89;97915.57;1712024;84;21017;-78
2021/09/15 03:01:38;;;;;;;10.58;8.03;;;;;;;13.22;88.73;97921.12;1636746;86;21384;-77
2021/09/15 03:04:06;;;;;;;11.25;7.28;;;;;;;13.28;88.49;97915.53;1675278;85;21000;-77
2021/09/15 03:06:34;;;;;;;9.68;7.05;;;;;;;13.32;88.10;97914.92;1675289;85;20987;-77
2021/09/15 03:09:03;;;;;;;11.80;7.75;;;;;;;13.38;88.05;97921.80;1674872;85;21043;-77
2021/09/15 03:11:31;;;;;;;8.28;7.12;;;;;;;13.43;87.83;97913.15;1676635;84;21428;-77
2021/09/15 03:13:58;;;;;;;10.40;7.12;;;;;;;13.48;87.35;97911.64;1676466;86;21464;-77
2021/09/15 03:16:25;;;;;;;9.63;7.55;;;;;;;13.42;86.91;97911.42;1676402;85;21003;-76
2021/09/15 03:18:54;;;;;;;10.13;7.60;;;;;;;13.42;86.87;97912.75;1680038;84;21160;-77
2021/09/15 03:21:22;;;;;;;11.28;8.08;;;;;;;13.43;86.56;97910.03;1681948;84;21074;-77
2021/09/15 03:23:48;;;;;;;10.60;8.13;;;;;;;13.39;86.67;97906.22;1675745;84;20997;-78
2021/09/15 03:26:15;;;;;;;11.48;8.58;;;;;;;13.32;86.53;97901.16;1670508;86;21023;-77
2021/09/15 03:28:42;;;;;;;10.85;8.40;;;;;;;13.30;86.38;97910.14;1676470;86;20940;-77
2021/09/15 03:31:09;;;;;;;10.20;8.18;;;;;;;13.23;86.64;97912.20;1676491;86;21486;-77
2021/09/15 03:33:35;;;;;;;11.35;8.25;;;;;;;13.15;86.79;97923.16;1676733;86;20957;-77
2021/09/15 03:36:03;;;;;;;11.33;8.93;;;;;;;13.09;87.25;97918.10;1675573;86;20999;-77
2021/09/15 03:38:31;;;;;;;12.85;8.48;;;;;;;13.07;87.14;97918.61;1673231;86;21022;-78
2021/09/15 03:40:58;;;;;;;11.80;8.80;;;;;;;13.06;87.58;97919.55;1676331;86;21447;-77
2021/09/15 03:43:24;;;;;;;10.90;8.10;;;;;;;13.03;87.99;97918.33;1670341;84;21040;-77
2021/09/15 03:45:51;;;;;;;12.33;8.35;;;;;;;12.99;88.10;97925.58;1677910;84;21031;-77
2021/09/15 03:48:18;;;;;;;9.43;7.78;;;;;;;12.96;88.04;97921.73;1676271;86;20964;-78
2021/09/15 03:50:46;;;;;;;12.35;8.50;;;;;;;12.94;88.74;97926.23;1676347;86;21326;-78
2021/09/15 03:53:13;;;;;;;9.53;7.55;;;;;;;12.94;88.91;97922.23;1676460;86;21110;-78
2021/09/15 03:55:39;;;;;;;11.55;8.33;;;;;;;12.92;89.36;97928.09;1653687;85;20975;-78
2021/09/15 03:58:06;;;;;;;12.28;8.03;;;;;;;12.96;88.42;97924.39;1647631;87;21044;-77
2021/09/15 04:00:33;;;;;;;14.30;7.95;;;;;;;12.98;88.59;97922.97;1670156;85;21011;-78
2021/09/15 04:03:01;;;;;;;10.78;8.13;;;;;;;13.00;88.13;97932.62;1694157;85;21442;-78
2021/09/15 04:05:30;;;;;;;8.98;7.37;;;;;;;13.02;87.94;97933.45;1694456;85;21089;-79
2021/09/15 04:07:57;;;;;;;11.65;8.13;;;;;;;13.05;87.88;97934.63;1694639;85;21500;-79
2021/09/15 04:10:24;;;;;;;10.58;7.85;;;;;;;13.06;87.63;97940.38;1674792;85;21482;-80
2021/09/15 04:12:53;;;;;;;10.28;6.72;;;;;;;13.06;87.77;97938.17;1708000;83;21064;-78
2021/09/15 04:15:20;;;;;;;12.70;7.92;;;;;;;13.10;87.69;97934.91;1693930;85;20979;-79
2021/09/15 04:17:46;;;;;;;14.73;8.60;;;;;;;13.14;87.68;97945.83;1694405;85;21051;-79
2021/09/15 04:20:13;;;;;;;8.38;7.47;;;;;;;13.15;87.85;97943.56;1694565;85;21441;-79
2021/09/15 04:22:41;;;;;;;9.38;7.75;;;;;;;13.17;87.80;97942.58;1694368;85;21062;-79
2021/09/15 04:33:24;;;;;;;11.12;8.13;;;;;;;13.22;87.42;97952.17;1695898;83;20976;-79
2021/09/15 04:35:51;;;;;;;12.15;8.98;;;;;;;13.22;87.48;97954.38;1690313;83;21040;-79
2021/09/15 04:38:18;;;;;;;11.25;9.10;;;;;;;13.22;86.93;97953.05;1706416;83;20973;-78
2021/09/15 04:40:45;;;;;;;10.72;8.25;;;;;;;13.22;87.30;97947.73;1723199;83;21052;-79
2021/09/15 04:43:12;;;;;;;14.83;8.28;;;;;;;13.19;86.70;97946.52;1723432;83;20990;-79
2021/09/15 04:45:38;;;;;;;11.38;8.63;;;;;;;13.13;86.88;97946.77;1681180;83;20995;-78
2021/09/15 04:48:05;;;;;;;10.90;8.58;;;;;;;13.09;87.21;97954.47;1665216;86;21003;-78
2021/09/15 04:50:32;;;;;;;10.68;9.20;;;;;;;13.04;86.70;97954.19;1665099;85;21496;-79
2021/09/15 04:52:58;;;;;;;11.20;9.08;;;;;;;12.99;86.45;97952.66;1665012;86;21150;-79
2021/09/15 04:55:29;;;;;;;10.88;9.68;;;;;;;12.95;87.48;97943.91;1665826;85;20999;-78
2021/09/15 04:57:54;;;;;;;14.85;9.40;;;;;;;12.92;87.13;97949.38;1664931;86;21030;-79
2021/09/15 05:00:21;;;;;;;15.55;11.03;;;;;;;12.91;87.47;97959.59;1663847;84;20998;-79
2021/09/15 05:02:49;;;;;;;12.70;9.33;;;;;;;12.89;87.56;97961.00;1689108;84;21043;-79
2021/09/15 05:05:18;;;;;;;13.88;9.40;;;;;;;12.89;86.94;97955.69;1679585;85;21418;-79
2021/09/15 05:07:46;;;;;;;12.95;9.73;;;;;;;12.89;87.01;97958.34;1681167;85;20997;-78
2021/09/15 05:10:12;;;;;;;14.05;10.13;;;;;;;12.94;87.49;97966.13;1681288;85;21422;-78
2021/09/15 05:12:40;;;;;;;13.78;10.25;;;;;;;12.96;87.66;97962.96;1659532;85;21471;-79
2021/09/15 05:15:09;;;;;;;13.80;10.08;;;;;;;13.00;87.21;97962.37;1690721;84;20958;-78
2021/09/15 05:17:36;;;;;;;13.93;10.60;;;;;;;13.03;87.43;97965.77;1707844;84;20990;-79
2021/09/15 05:20:04;;;;;;;13.80;10.08;;;;;;;13.06;87.75;97967.44;1709418;83;21032;-78
2021/09/15 05:22:31;;;;;;;15.45;10.00;;;;;;;13.12;87.91;97967.17;1671494;84;21053;-79
2021/09/15 05:25:01;;;;;;;14.60;10.63;;;;;;;13.16;88.12;97970.12;1680680;85;21015;-79
2021/09/15 05:27:27;;;;;;;14.47;10.50;;;;;;;13.20;88.45;97979.72;1681171;85;21576;-78
2021/09/15 05:29:53;;;;;;;16.85;9.80;;;;;;;13.26;88.12;97976.41;1681352;85;21035;-78
2021/09/15 05:32:20;;;;;;;12.78;8.98;;;;;;;13.30;88.18;97976.23;1681331;85;21036;-78
2021/09/15 05:34:46;;;;;;;12.30;9.40;;;;;;;13.37;88.03;97972.83;1680623;85;21073;-78
2021/09/15 05:37:13;;;;;;;9.85;8.70;;;;;;;13.48;87.16;97972.87;1681212;85;21555;-79
2021/09/15 05:39:40;;;;;;;11.50;8.90;;;;;;;13.55;87.19;97971.70;1681125;85;21027;-77
2021/09/15 05:42:08;;;;;;;10.25;8.63;;;;;;;13.64;86.92;97977.97;1668367;84;21505;-78
2021/09/15 05:44:34;;;;;;;10.20;8.48;;;;;;;13.76;86.88;97969.92;1652448;87;21047;-78
2021/09/15 05:47:01;;;;;;;10.23;8.58;;;;;;;13.86;86.41;97973.92;1652487;87;21040;-78
2021/09/15 05:49:29;;;;;;;10.40;8.73;;;;;;;14.01;86.43;97972.85;1652152;87;21055;-78
2021/09/15 05:51:58;;;;;;;13.22;8.75;;;;;;;14.17;85.69;97978.83;1653277;85;21406;-78
2021/09/15 05:54:24;;;;;;;11.30;8.58;;;;;;;14.30;85.50;97983.14;1652413;87;21083;-78
2021/09/15 05:56:51;;;;;;;12.00;8.00;;;;;;;14.41;85.53;97984.84;1659457;84;21038;-78
2021/09/15 05:59:17;;;;;;;12.68;8.48;;;;;;;14.51;83.90;97972.84;1662290;85;22069;-77
2021/09/15 06:01:44;;;;;;;12.20;8.63;;;;;;;14.64;84.49;97978.47;1658399;85;21082;-79
2021/09/15 06:04:11;;;;;;;13.03;8.48;;;;;;;14.76;84.51;97980.20;1692794;84;21049;-78
2021/09/15 06:06:39;;;;;;;13.65;8.93;;;;;;;14.89;84.14;97981.35;1678482;85;21025;-78
2021/09/15 06:09:08;;;;;;;11.85;9.10;;;;;;;14.98;83.71;97977.38;1678614;85;21492;-78
2021/09/15 06:11:36;;;;;;;12.55;9.43;;;;;;;15.08;83.71;97975.59;1658649;84;21489;-78
2021/09/15 06:14:02;;;;;;;11.68;8.83;;;;;;;15.15;83.19;97977.89;1652499;87;21015;-79
2021/09/15 06:16:29;;;;;;;15.88;9.25;;;;;;;15.25;82.30;97972.11;1661696;84;21065;-78
2021/09/15 06:18:56;;;;;;;16.62;8.70;;;;;;;15.34;82.08;97975.66;1709770;84;21511;-78
2021/09/15 06:21:41;;;;;;;11.80;9.08;;;;;;;15.41;81.66;97976.22;1659741;85;21031;-79
2021/09/15 06:24:25;;;;;;;11.00;8.83;;;;;;;15.46;81.43;97978.66;1617469;89;21161;-79
2021/09/15 06:26:53;;;;;;;11.25;8.98;;;;;;;15.52;81.34;97985.89;1641373;87;21444;-78
2021/09/15 06:29:20;;;;;;;12.60;9.15;;;;;;;15.52;81.00;97985.02;1689757;84;21013;-78
2021/09/15 06:31:49;;;;;;;9.95;8.55;;;;;;;15.53;80.68;97979.60;1676145;85;21029;-78
2021/09/15 06:34:17;;;;;;;12.55;8.85;;;;;;;15.56;81.01;97982.59;1681274;85;21063;-78
2021/09/15 06:36:43;;;;;;;15.30;8.55;;;;;;;15.58;80.44;97978.90;1679046;85;21444;-78
2021/09/15 06:39:10;;;;;;;12.07;8.78;;;;;;;15.64;80.32;97983.53;1681190;85;21086;-78
2021/09/15 06:41:36;;;;;;;12.33;8.35;;;;;;;15.68;80.33;97985.11;1681322;85;21031;-77
2021/09/15 06:44:05;;;;;;;14.20;9.03;;;;;;;15.71;80.05;97984.48;1680835;85;21003;-77
2021/09/15 06:46:34;;;;;;;14.15;9.15;;;;;;;15.75;80.17;97982.55;1681322;85;21019;-77
2021/09/15 06:49:00;;;;;;;12.00;8.83;;;;;;;15.80;80.17;97984.96;1681263;85;21444;-78
2021/09/15 06:51:27;;;;;;;13.43;8.78;;;;;;;15.84;80.12;97988.75;1681270;85;20989;-77
2021/09/15 06:53:54;;;;;;;15.03;9.70;;;;;;;15.87;80.20;97989.06;1681546;85;21035;-77
2021/09/15 06:56:21;;;;;;;13.30;9.05;;;;;;;15.95;80.03;97990.03;1681243;85;21019;-78
2021/09/15 06:58:48;;;;;;;13.55;9.20;;;;;;;16.03;80.09;97988.30;1655163;85;21003;-78
2021/09/15 07:01:14;;;;;;;10.98;8.73;;;;;;;16.17;80.14;98000.94;1651115;87;21086;-77
2021/09/15 07:03:41;;;;;;;13.38;9.35;;;;;;;16.31;80.07;97990.38;1651876;85;21010;-77
2021/09/15 07:06:08;;;;;;;13.62;8.68;;;;;;;16.54;80.03;97993.64;1676964;85;21421;-78
2021/09/15 07:08:34;;;;;;;13.13;9.58;;;;;;;16.70;79.19;97990.97;1676791;85;21043;-78
2021/09/15 07:11:01;;;;;;;11.73;8.78;;;;;;;16.85;78.96;97994.63;1674526;85;21036;-77
2021/09/15 07:13:29;;;;;;;10.75;8.50;;;;;;;16.96;77.86;97990.48;1670953;85;21030;-77
2021/09/15 07:15:58;;;;;;;16.10;8.80;;;;;;;17.06;77.20;97981.50;1672194;85;21047;-78
2021/09/15 07:18:27;;;;;;;12.37;8.18;;;;;;;17.11;77.75;97985.62;1672854;85;21005;-78
2021/09/15 07:20:55;;;;;;;11.63;8.65;;;;;;;17.17;77.95;97982.21;1670054;85;20974;-76
2021/09/15 07:23:22;;;;;;;15.83;8.65;;;;;;;17.19;78.06;97986.53;1678789;85;20954;-76
2021/09/15 07:25:48;;;;;;;10.53;8.15;;;;;;;17.22;78.05;97986.83;1675177;86;21033;-75
2021/09/15 07:28:15;;;;;;;12.88;8.00;;;;;;;17.25;78.07;97991.56;1675368;86;21408;-75
2021/09/15 07:30:42;;;;;;;13.15;8.70;;;;;;;17.27;77.10;97988.77;1675403;86;20991;-75
2021/09/15 07:33:08;;;;;;;11.48;8.40;;;;;;;17.31;77.31;97983.63;1674542;85;20940;-75
2021/09/15 07:35:35;;;;;;;10.35;8.53;;;;;;;17.37;76.95;97987.78;1676174;85;21432;-75
2021/09/15 07:38:02;;;;;;;11.08;8.65;;;;;;;17.44;76.72;97981.09;1676276;85;21027;-75
2021/09/15 07:40:30;;;;;;;11.80;9.08;;;;;;;17.54;76.71;97985.46;1657059;85;21552;-75
2021/09/15 07:42:57;;;;;;;12.37;8.20;;;;;;;17.65;76.32;97984.34;1670620;85;21037;-76
2021/09/15 07:45:24;;;;;;;12.55;8.40;;;;;;;17.79;76.59;97984.02;1661745;85;21002;-74
2021/09/15 07:47:50;;;;;;;13.35;8.38;;;;;;;17.91;75.65;97981.95;1665029;85;21007;-75
2021/09/15 07:50:17;;;;;;;13.22;8.68;;;;;;;18.06;75.59;97984.17;1650434;85;21452;-74
2021/09/15 07:52:45;;;;;;;12.20;9.03;;;;;;;18.19;75.62;97984.31;1676477;85;20970;-76
2021/09/15 07:55:12;;;;;;;10.05;8.40;;;;;;;18.28;75.40;97987.40;1676513;85;21459;-76
2021/09/15 07:57:43;;;;;;;13.22;8.03;;;;;;;18.37;75.31;97983.27;1676453;85;21093;-75
2021/09/15 08:00:11;;;;;;;10.53;8.65;;;;;;;18.43;74.98;97988.25;1676678;85;21006;-75
2021/09/15 08:02:41;;;;;;;9.55;8.35;;;;;;;18.48;74.69;97987.52;1689426;84;20965;-75
2021/09/15 08:05:10;;;;;;;12.80;8.90;;;;;;;18.48;74.21;97984.84;1667806;85;21452;-75
2021/09/15 08:07:36;;;;;;;12.23;8.08;;;;;;;18.50;74.13;97981.56;1707041;83;21060;-75
2021/09/15 08:10:05;;;;;;;9.33;8.05;;;;;;;18.52;73.74;97976.95;1697762;83;21029;-74
2021/09/15 08:12:32;;;;;;;11.22;8.00;;;;;;;18.57;73.52;97982.89;1698428;83;21010;-76
2021/09/15 08:14:58;;;;;;;11.20;7.97;;;;;;;18.62;73.54;97982.62;1692283;85;21057;-75
2021/09/15 08:17:25;;;;;;;10.20;7.85;;;;;;;18.66;73.22;97981.47;1692433;85;21049;-76
2021/09/15 08:19:51;;;;;;;10.80;8.25;;;;;;;18.70;70.51;97976.77;1703692;83;21010;-75
2021/09/15 08:22:19;;;;;;;10.82;8.30;;;;;;;18.77;72.24;97979.42;1680516;85;21419;-75
2021/09/15 08:24:45;;;;;;;9.78;8.03;;;;;;;18.83;71.98;97975.03;1692651;85;21513;-76
2021/09/15 08:27:12;;;;;;;12.43;8.20;;;;;;;18.90;71.54;97974.63;1693535;85;21007;-76
2021/09/15 08:29:39;;;;;;;9.88;8.48;;;;;;;18.94;71.51;97975.66;1688336;85;21027;-75
2021/09/15 08:32:07;;;;;;;11.33;8.30;;;;;;;18.98;71.34;97967.80;1691861;83;21024;-75
2021/09/15 08:34:35;;;;;;;9.73;7.15;;;;;;;19.03;71.24;97974.22;1694009;85;21026;-75
2021/09/15 08:37:01;;;;;;;8.40;7.50;;;;;;;19.08;68.86;97969.91;1693725;85;21006;-75
2021/09/15 08:39:33;;;;;;;11.68;7.72;;;;;;;19.17;70.39;97967.10;1693748;85;21075;-74
2021/09/15 08:41:59;;;;;;;8.40;7.55;;;;;;;19.25;70.12;97964.78;1693896;85;21053;-75
2021/09/15 08:44:26;;;;;;;15.32;8.00;;;;;;;19.36;69.86;97968.95;1703683;83;21009;-75
2021/09/15 08:46:58;;;;;;;10.80;8.48;;;;;;;19.45;70.23;97968.84;1664188;85;22499;-75
2021/09/15 08:49:29;;;;;;;12.00;8.15;;;;;;;19.55;69.41;97966.89;1693351;85;21078;-76
2021/09/15 08:51:57;;;;;;;12.43;9.45;;;;;;;19.64;69.32;97964.93;1693616;85;21472;-74
2021/09/15 08:54:23;;;;;;;10.85;9.20;;;;;;;19.78;69.59;97965.33;1694743;83;21473;-75
2021/09/15 08:56:51;;;;;;;18.82;10.32;;;;;;;19.89;69.50;97962.76;1694998;83;21503;-76
2021/09/15 08:59:18;;;;;;;13.22;9.95;;;;;;;20.00;69.65;97966.56;1692895;84;21085;-76
2021/09/15 09:01:45;;;;;;;15.80;9.48;;;;;;;20.10;69.44;97964.96;1686938;85;21418;-75
2021/09/15 09:04:16;;;;;;;11.88;8.43;;;;;;;20.23;69.21;97962.77;1683988;85;21470;-75
2021/09/15 09:06:50;;;;;;;12.68;9.20;;;;;;;20.33;68.79;97954.42;1683944;85;20983;-74
2021/09/15 09:09:15;;;;;;;19.85;9.93;;;;;;;20.42;68.68;97955.59;1689968;84;21120;-75
2021/09/15 09:11:44;;;;;;;16.52;10.38;;;;;;;20.56;68.18;97951.94;1698666;84;20980;-75
2021/09/15 09:14:11;;;;;;;12.23;8.55;;;;;;;20.69;68.20;97954.11;1682671;85;21492;-75
2021/09/15 09:16:48;;;;;;;17.60;9.40;;;;;;;20.82;67.62;97957.27;1682860;85;21062;-76
2021/09/15 09:19:21;;;;;;;14.05;8.68;;;;;;;20.93;67.39;97951.98;1683672;85;21110;-75
2021/09/15 09:21:51;;;;;;;12.05;8.30;;;;;;;21.04;62.60;97939.55;1683326;85;21745;-75
2021/09/15 09:24:25;;;;;;;11.97;9.25;;;;;;;21.16;63.26;97944.05;1683997;85;21065;-75
2021/09/15 09:26:58;;;;;;;13.65;9.00;;;;;;;21.31;64.92;97943.89;1682970;85;20998;-75
2021/09/15 09:29:34;;;;;;;8.83;7.85;;;;;;;21.43;63.58;97942.11;1668871;85;21042;-74
2021/09/15 09:32:06;;;;;;;;;;;;;;;21.57;62.97;97938.36;1679113;85;21009;-74
2021/09/15 09:34:48;;;;;;;8.98;7.75;;;;;;;21.72;62.11;97939.91;1694738;84;20124;-75
2021/09/15 09:37:20;;;;;;;9.25;7.80;;;;;;;21.87;59.54;97938.36;1697321;84;21566;-75
2021/09/15 09:39:56;;;;;;;10.30;7.28;;;;;;;22.00;61.94;97935.09;1709713;83;21539;-74
2021/09/15 09:42:28;;;;;;;9.00;7.55;;;;;;;22.12;60.67;97935.09;1684004;85;21105;-74
2021/09/15 09:45:10;;;;;;;7.72;6.67;;;;;;;22.20;59.99;97934.49;1684122;85;21057;-74
2021/09/15 09:47:39;;;;;;;8.63;6.72;;;;;;;22.29;59.21;97931.07;1683845;85;21042;-74
2021/09/15 09:50:14;;;;;;;9.08;7.35;;;;;;;22.39;57.08;97931.22;1684387;85;21074;-75
2021/09/15 09:53:01;;;;;;;7.42;6.67;;;;;;;22.55;53.76;97926.33;1683921;85;21464;-75
2021/09/15 09:55:35;;;;;;;9.93;7.12;;;;;;;22.55;53.76;97926.33;1683082;85;21066;-75
2021/09/15 09:58:03;;;;;;;7.55;6.70;;;;;;;22.68;55.77;97928.89;1686064;84;21049;-75
2021/09/15 10:00:31;;;;;;;9.58;7.10;;;;;;;22.88;55.75;97922.88;1691590;84;21088;-75
2021/09/15 10:02:59;;;;;;;9.38;7.05;;;;;;;22.94;52.95;97910.20;1673543;85;21075;-75
2021/09/15 10:05:27;;;;;;;9.38;6.67;;;;;;;22.94;52.95;97910.20;1679796;85;21024;-73
2021/09/15 10:07:53;;;;;;;9.43;6.87;;;;;;;23.09;53.48;97913.50;1680711;85;21095;-73
2021/09/15 10:10:22;;;;;;;7.92;7.12;;;;;;;23.21;53.45;97916.52;1692055;84;21097;-73
2021/09/15 10:12:55;;;;;;;9.65;7.12;;;;;;;23.34;52.95;97915.53;1707414;84;21472;-74
2021/09/15 10:15:21;;;;;;;8.93;7.33;;;;;;;23.42;53.72;97910.32;1682403;84;20964;-74
2021/09/15 10:17:55;;;;;;;10.23;7.05;;;;;;;23.51;53.08;97907.35;1667287;86;21016;-74
2021/09/15 10:20:26;;;;;;;10.03;6.78;;;;;;;23.55;52.82;97904.73;1667192;86;21127;-75
2021/09/15 10:22:52;;;;;;;9.00;6.47;;;;;;;23.65;51.99;97901.23;1677239;84;21389;-73
2021/09/15 10:25:36;;;;;;;8.75;6.60;;;;;;;23.75;51.86;97904.87;1680811;85;21027;-74
2021/09/15 10:28:09;;;;;;;9.95;6.67;;;;;;;23.87;50.11;97907.02;1679606;84;21054;-74
2021/09/15 10:30:55;;;;;;;8.00;6.95;;;;;;;24.00;48.48;97903.63;1680977;85;21079;-73
2021/09/15 10:33:42;;;;;;;6.50;5.85;;;;;;;24.17;49.22;97898.64;1680013;85;20983;-74
2021/09/15 10:36:20;;;;;;;7.58;6.40;;;;;;;24.61;49.89;97901.58;1694039;84;22162;-73
2021/09/15 10:38:59;;;;;;;6.50;5.90;;;;;;;25.75;47.29;97896.30;1680453;85;21423;-73
2021/09/15 10:41:37;;;;;;;9.05;7.05;;;;;;;26.87;44.30;97888.85;1680480;85;21054;-73
2021/09/15 10:44:14;;;;;;;7.17;6.00;;;;;;;27.99;42.56;97880.41;1680254;85;21023;-73
2021/09/15 10:46:43;;;;;;;6.53;5.80;;;;;;;29.08;40.29;97879.92;1680523;85;21437;-74
2021/09/15 10:49:27;;;;;;;6.22;5.58;;;;;;;30.01;39.53;97881.17;1680794;85;21027;-73
2021/09/15 10:52:15;;;;;;;8.68;6.28;;;;;;;30.72;33.70;97870.07;1672404;85;21059;-73
2021/09/15 10:54:55;;;;;;;9.25;6.40;;;;;;;31.59;34.99;97876.94;1651627;87;21095;-76
2021/09/15 10:57:33;;;;;;;7.45;5.95;;;;;;;32.34;36.00;97872.13;1651261;87;21055;-77
2021/09/15 11:00:17;;;;;;;9.83;7.25;;;;;;;32.97;33.60;97874.46;1675025;84;21451;-77
2021/09/15 11:02:49;;;;;;;11.95;7.75;;;;;;;33.48;32.57;97863.09;1670102;84;21053;-76
2021/09/15 11:05:41;;;;;;;8.03;6.20;;;;;;;33.97;33.04;97866.06;1680506;85;21002;-75
2021/09/15 11:08:12;;;;;;;10.23;6.93;;;;;;;34.51;32.93;97866.44;1680995;84;21065;-77
2021/09/15 11:10:42;;;;;;;8.08;7.25;;;;;;;35.16;28.97;97862.50;1679761;84;21053;-76
2021/09/15 11:13:17;;;;;;;6.62;5.87;;;;;;;35.50;31.09;97855.14;1680102;85;21151;-76
2021/09/15 11:15:48;;;;;;;8.48;7.60;;;;;;;35.77;29.58;97851.58;1660943;85;21011;-75
2021/09/15 11:18:22;;;;;;;6.03;5.42;;;;;;;36.13;28.84;97850.81;1680880;85;21058;-79
2021/09/15 11:20:58;;;;;;;7.58;6.87;;;;;;;36.57;28.13;97847.86;1680950;85;21463;-76
2021/09/15 11:23:28;;;;;;;8.55;6.62;;;;;;;36.93;27.76;97847.52;1671626;85;21019;-76
2021/09/15 11:25:57;;;;;;;8.45;6.78;;;;;;;37.20;27.04;97844.66;1696611;84;21107;-76
2021/09/15 11:28:24;;;;;;;8.48;6.20;;;;;;;37.44;26.05;97835.25;1684120;84;20986;-80
2021/09/15 11:31:04;;;;;;;7.53;6.10;;;;;;;37.69;25.35;97833.07;1704468;84;21064;-79
2021/09/15 11:33:38;;;;;;;7.05;6.33;;;;;;;37.86;24.51;97836.11;1685181;84;21424;-76
2021/09/15 11:36:08;;;;;;;6.80;6.20;;;;;;;38.07;25.05;97828.45;1685649;84;21554;-75
2021/09/15 11:38:39;;;;;;;8.00;6.85;;;;;;;38.10;23.55;97822.52;1686018;84;21020;-75
2021/09/15 11:41:13;;;;;;;6.67;6.08;;;;;;;37.43;24.53;97826.10;1686209;84;21041;-76
2021/09/15 11:43:47;;;;;;;6.70;6.10;;;;;;;36.80;24.11;97834.11;1680665;85;21070;-76
2021/09/15 11:46:17;;;;;;;6.55;5.95;;;;;;;36.53;24.87;97830.03;1680475;85;21050;-75
2021/09/15 11:48:45;;;;;;;7.15;6.42;;;;;;;36.83;23.09;97827.30;1681554;84;21059;-76